createdAt,value
2022-08-03T00:00:47.106Z,6.10
2022-08-03T00:03:17.274Z,5.10
2022-08-03T00:06:04.739Z,6.90
2022-08-03T00:08:40.068Z,5.90
2022-08-03T00:11:10.283Z,4.20
2022-08-03T00:13:40.024Z,6.30
2022-08-03T00:16:10.522Z,5.50
2022-08-03T00:18:41.134Z,4.30
2022-08-03T00:21:11.816Z,5.70
2022-08-03T00:23:51.266Z,5.80
2022-08-03T00:26:22.181Z,6.80
2022-08-03T00:28:52.132Z,5.30
2022-08-03T00:31:38.075Z,5.60
2022-08-03T00:34:11.611Z,8.00
2022-08-03T00:36:42.458Z,8.10
2022-08-03T00:39:12.291Z,5.30
2022-08-03T00:41:42.063Z,4.80
2022-08-03T00:44:11.830Z,4.10
2022-08-03T00:46:41.763Z,7.10
2022-08-03T00:49:11.441Z,7.80
2022-08-03T00:51:41.503Z,5.70
2022-08-03T00:54:12.061Z,6.50
2022-08-03T00:56:59.804Z,6.80
2022-08-03T00:59:32.112Z,6.70
2022-08-03T01:02:02.072Z,4.80
2022-08-03T01:04:31.864Z,5.20
2022-08-03T01:07:17.617Z,5.40
2022-08-03T01:10:03.488Z,6.60
2022-08-03T01:12:43.879Z,6.10
2022-08-03T01:15:25.230Z,5.80
2022-08-03T01:18:03.673Z,8.00
2022-08-03T01:20:40.426Z,5.60
2022-08-03T01:23:43.396Z,5.90
2022-08-03T01:26:47.680Z,8.50
2022-08-03T01:30:01.542Z,5.80
2022-08-03T01:32:59.920Z,8.70
2022-08-03T01:35:41.711Z,6.40
2022-08-03T01:38:20.093Z,7.50
2022-08-03T01:40:53.408Z,7.80
2022-08-03T01:44:26.406Z,8.10
2022-08-03T01:46:20.886Z,9.50
2022-08-03T01:48:51.945Z,5.10
2022-08-03T01:51:23.269Z,5.40
2022-08-03T01:53:54.565Z,9.20
2022-08-03T01:56:28.511Z,6.50
2022-08-03T01:59:02.637Z,7.50
2022-08-03T02:02:15.257Z,7.30
2022-08-03T02:04:27.338Z,7.70
2022-08-03T02:07:03.075Z,6.60
2022-08-03T02:09:34.047Z,7.50
2022-08-03T02:12:06.721Z,7.40
2022-08-03T02:14:39.210Z,6.90
2022-08-03T02:17:10.507Z,7.90
2022-08-03T02:19:42.414Z,5.80
2022-08-03T02:22:14.794Z,6.00
2022-08-03T02:24:49.312Z,7.60
2022-08-03T02:27:27.148Z,7.20
2022-08-03T02:30:05.192Z,8.30
2022-08-03T02:32:43.564Z,6.70
2022-08-03T02:35:18.528Z,6.60
2022-08-03T02:37:53.351Z,6.50
2022-08-03T02:40:27.765Z,6.20
2022-08-03T02:43:03.446Z,7.30
2022-08-03T02:45:37.574Z,6.20
2022-08-03T02:48:11.089Z,8.30
2022-08-03T02:50:44.476Z,7.20
2022-08-03T02:53:16.547Z,10.60
2022-08-03T02:55:50.077Z,6.20
2022-08-03T02:58:23.553Z,6.10
2022-08-03T03:00:55.564Z,8.30
2022-08-03T03:03:27.040Z,8.30
2022-08-03T03:06:00.664Z,8.00
2022-08-03T03:08:36.776Z,9.10
2022-08-03T03:11:10.337Z,9.30
2022-08-03T03:13:42.392Z,10.40
2022-08-03T03:16:16.262Z,9.00
2022-08-03T03:18:49.637Z,9.10
2022-08-03T03:21:23.381Z,7.70
2022-08-03T03:23:54.948Z,8.30
2022-08-03T03:26:24.680Z,11.20
2022-08-03T03:28:55.322Z,10.40
2022-08-03T03:31:25.359Z,9.00
2022-08-03T03:33:57.461Z,13.50
2022-08-03T03:36:27.184Z,11.40
2022-08-03T03:38:57.938Z,9.50
2022-08-03T03:41:27.976Z,9.50
2022-08-03T03:44:04.217Z,9.60
2022-08-03T03:46:34.379Z,7.70
2022-08-03T03:49:05.029Z,10.10
2022-08-03T03:51:35.029Z,7.60
2022-08-03T03:54:06.595Z,8.40
2022-08-03T03:56:36.347Z,9.10
2022-08-03T03:59:06.261Z,7.80
2022-08-03T04:01:36.377Z,10.10
2022-08-03T04:04:21.102Z,8.30
2022-08-03T04:07:09.276Z,9.20
2022-08-03T04:10:14.498Z,9.90
2022-08-03T04:12:50.197Z,9.10
2022-08-03T04:15:22.977Z,7.50
2022-08-03T04:17:58.230Z,8.00
2022-08-03T04:20:32.580Z,9.00
2022-08-03T04:23:14.219Z,8.80
2022-08-03T04:25:51.483Z,8.40
2022-08-03T04:28:29.452Z,7.70
2022-08-03T04:31:02.949Z,8.30
2022-08-03T04:33:36.920Z,9.80
2022-08-03T04:36:09.298Z,7.20
2022-08-03T04:38:52.211Z,8.50
2022-08-03T04:41:25.201Z,9.30
2022-08-03T04:43:57.898Z,11.00
2022-08-03T04:46:32.009Z,9.40
2022-08-03T04:49:02.886Z,11.50
2022-08-03T04:51:37.531Z,9.40
2022-08-03T04:54:11.682Z,8.60
2022-08-03T04:56:42.878Z,10.00
2022-08-03T04:59:12.928Z,9.90
2022-08-03T05:01:43.242Z,8.80
2022-08-03T05:04:13.104Z,10.60
2022-08-03T05:06:47.907Z,9.50
2022-08-03T05:09:45.793Z,9.00
2022-08-03T05:12:09.367Z,12.10
2022-08-03T05:14:39.807Z,11.60
2022-08-03T05:17:09.892Z,9.60
2022-08-03T05:19:39.492Z,9.20
2022-08-03T05:22:09.249Z,9.90
2022-08-03T05:24:39.113Z,10.00
2022-08-03T05:27:08.871Z,10.00
2022-08-03T05:29:38.536Z,10.40
2022-08-03T05:32:08.562Z,9.00
2022-08-03T05:34:38.570Z,12.70
2022-08-03T05:37:08.769Z,9.20
2022-08-03T05:39:39.028Z,9.80
2022-08-03T05:42:10.067Z,8.50
2022-08-03T05:44:39.865Z,9.00
2022-08-03T05:47:09.700Z,9.40
2022-08-03T05:49:39.656Z,10.40
2022-08-03T05:52:14.758Z,9.10
2022-08-03T05:54:57.314Z,10.60
2022-08-03T05:57:27.716Z,7.80
2022-08-03T05:59:58.557Z,7.40
2022-08-03T06:02:29.257Z,9.10
2022-08-03T06:04:59.222Z,7.40
2022-08-03T06:07:29.185Z,8.80
2022-08-03T06:10:35.661Z,8.20
2022-08-03T06:12:51.008Z,10.00
2022-08-03T06:15:20.830Z,7.90
2022-08-03T06:17:52.165Z,10.30
2022-08-03T06:20:22.556Z,7.50
2022-08-03T06:23:00.319Z,8.00
2022-08-03T06:25:31.360Z,7.30
2022-08-03T06:28:01.577Z,8.00
2022-08-03T06:30:31.670Z,7.00
2022-08-03T06:33:01.851Z,7.10
2022-08-03T06:35:32.850Z,8.30
2022-08-03T06:38:05.529Z,7.10
2022-08-03T06:40:39.502Z,6.60
2022-08-03T06:43:12.669Z,7.50
2022-08-03T06:45:42.853Z,7.80
2022-08-03T06:48:17.983Z,8.30
2022-08-03T06:50:47.903Z,5.80
2022-08-03T06:53:21.402Z,8.70
2022-08-03T06:55:54.692Z,7.60
2022-08-03T06:58:25.371Z,6.90
2022-08-03T07:00:55.227Z,7.60
2022-08-03T07:03:25.778Z,6.80
2022-08-03T07:05:56.936Z,5.70
2022-08-03T07:08:34.087Z,5.20
2022-08-03T07:11:04.493Z,7.80
2022-08-03T07:13:34.223Z,6.30
2022-08-03T07:16:04.506Z,4.80
2022-08-03T07:18:34.290Z,6.00
2022-08-03T07:21:04.690Z,7.10
2022-08-03T07:23:34.541Z,5.90
2022-08-03T07:26:04.654Z,5.40
2022-08-03T07:28:34.473Z,5.50
2022-08-03T07:31:04.658Z,6.10
2022-08-03T07:33:34.779Z,6.30
2022-08-03T07:36:05.534Z,4.50
2022-08-03T07:38:37.868Z,4.70
2022-08-03T07:41:15.913Z,6.10
2022-08-03T07:43:46.046Z,4.40
2022-08-03T07:46:18.989Z,5.40
2022-08-03T07:48:48.920Z,5.20
2022-08-03T07:51:18.867Z,4.30
2022-08-03T07:53:48.868Z,6.10
2022-08-03T07:56:24.355Z,6.80
2022-08-03T07:58:54.677Z,5.50
2022-08-03T08:01:24.660Z,6.50
2022-08-03T08:03:55.095Z,5.50
2022-08-03T08:06:24.985Z,4.40
2022-08-03T08:08:59.124Z,7.30
2022-08-03T08:11:29.182Z,4.70
2022-08-03T08:14:02.240Z,7.10
2022-08-03T08:16:32.966Z,6.10
2022-08-03T08:19:03.188Z,5.10
2022-08-03T08:21:53.469Z,4.30
2022-08-03T08:24:23.869Z,5.30
2022-08-03T08:26:56.984Z,4.40
2022-08-03T08:29:27.405Z,5.40
2022-08-03T08:31:57.209Z,4.80
2022-08-03T08:34:27.804Z,3.90
2022-08-03T08:36:58.953Z,3.80
2022-08-03T08:39:28.913Z,4.50
2022-08-03T08:41:58.795Z,4.00
2022-08-03T08:44:30.024Z,5.50
2022-08-03T08:47:05.746Z,3.50
2022-08-03T08:49:46.487Z,4.80
2022-08-03T08:52:31.862Z,4.60
2022-08-03T08:55:10.114Z,4.90
2022-08-03T08:57:51.300Z,5.30
2022-08-03T09:00:22.295Z,3.60
2022-08-03T09:02:52.421Z,3.60
2022-08-03T09:05:47.395Z,6.50
2022-08-03T09:08:15.830Z,4.40
2022-08-03T09:10:45.775Z,3.80
2022-08-03T09:13:16.767Z,3.80
2022-08-03T09:18:15.463Z,3.50
2022-08-03T09:20:50.501Z,5.10
2022-08-03T09:23:59.581Z,4.20
2022-08-03T09:26:26.968Z,3.80
2022-08-03T09:29:11.161Z,5.10
2022-08-03T09:31:50.935Z,4.10
2022-08-03T09:34:30.074Z,4.70
2022-08-03T09:37:13.915Z,4.00
2022-08-03T09:39:48.442Z,3.00
2022-08-03T09:42:24.255Z,3.20
2022-08-03T09:44:59.659Z,4.60
2022-08-03T09:47:44.962Z,3.80
2022-08-03T09:50:23.736Z,3.30
2022-08-03T09:53:04.895Z,4.20
2022-08-03T09:56:33.598Z,3.00
2022-08-03T09:58:34.382Z,3.50
2022-08-03T10:01:23.659Z,3.50
2022-08-03T10:04:05.308Z,4.70
2022-08-03T10:06:43.233Z,5.20
2022-08-03T10:09:19.796Z,3.20
2022-08-03T10:11:54.489Z,4.00
2022-08-03T10:14:32.019Z,3.40
2022-08-03T10:17:06.969Z,2.80
2022-08-03T10:19:42.140Z,3.10
2022-08-03T10:22:22.182Z,3.80
2022-08-03T10:25:01.284Z,4.80
2022-08-03T10:27:39.316Z,4.50
2022-08-03T10:30:15.679Z,7.50
2022-08-03T10:32:58.107Z,3.30
2022-08-03T10:35:34.740Z,3.70
2022-08-03T10:38:35.594Z,4.50
2022-08-03T10:41:12.279Z,3.60
2022-08-03T10:43:54.844Z,3.00
2022-08-03T10:46:30.062Z,3.50
2022-08-03T10:49:05.144Z,3.60
2022-08-03T10:51:40.731Z,3.60
2022-08-03T10:55:07.834Z,3.20
2022-08-03T10:58:07.997Z,3.40
2022-08-03T11:00:54.712Z,3.70
2022-08-03T11:03:28.883Z,4.60
2022-08-03T11:06:21.880Z,3.50
2022-08-03T11:09:21.819Z,3.80
2022-08-03T11:11:56.797Z,6.40
2022-08-03T11:14:46.887Z,3.50
2022-08-03T11:17:24.194Z,3.10
2022-08-03T11:20:00.014Z,3.80
2022-08-03T11:22:56.861Z,3.60
2022-08-03T11:25:54.895Z,4.50
2022-08-03T11:28:33.941Z,3.20
2022-08-03T11:31:50.641Z,3.10
2022-08-03T11:34:25.621Z,2.90
2022-08-03T11:37:31.515Z,5.00
2022-08-03T11:40:30.037Z,4.20
2022-08-03T11:43:05.231Z,3.90
2022-08-03T11:45:57.688Z,3.00
2022-08-03T11:48:39.583Z,5.40
2022-08-03T11:51:30.550Z,2.40
2022-08-03T11:54:09.725Z,2.70
2022-08-03T11:56:51.788Z,3.50
2022-08-03T11:59:38.831Z,2.80
2022-08-03T12:02:16.646Z,3.60
2022-08-03T12:05:01.388Z,5.00
2022-08-03T12:08:03.597Z,3.30
2022-08-03T12:10:30.524Z,3.60
2022-08-03T12:14:45.690Z,3.20
2022-08-03T12:16:03.497Z,3.40
2022-08-03T12:18:37.884Z,4.10
2022-08-03T12:21:14.482Z,5.80
2022-08-03T12:23:48.726Z,3.10
2022-08-03T12:26:22.894Z,3.10
2022-08-03T12:28:57.330Z,3.50
2022-08-03T12:31:31.817Z,2.60
2022-08-03T12:34:09.278Z,3.10
2022-08-03T12:36:54.465Z,3.60
2022-08-03T12:39:31.651Z,3.10
2022-08-03T12:42:10.054Z,4.30
2022-08-03T12:44:45.943Z,2.80
2022-08-03T12:47:24.874Z,3.30
2022-08-03T12:49:59.180Z,3.70
2022-08-03T12:52:47.530Z,3.70
2022-08-03T12:55:40.145Z,4.60
2022-08-03T12:58:38.808Z,3.60
2022-08-03T13:01:13.933Z,5.00
2022-08-03T13:03:52.988Z,5.10
2022-08-03T13:06:28.758Z,3.60
2022-08-03T13:09:10.762Z,2.70
2022-08-03T13:11:58.041Z,4.90
2022-08-03T13:14:36.228Z,3.20
2022-08-03T13:17:10.973Z,2.70
2022-08-03T13:19:46.339Z,2.80
2022-08-03T13:22:22.759Z,2.90
2022-08-03T13:24:58.643Z,4.30
2022-08-03T13:28:04.599Z,5.30
2022-08-03T13:30:30.399Z,5.00
2022-08-03T13:33:04.838Z,4.30
2022-08-03T13:35:38.924Z,3.60
2022-08-03T13:38:13.330Z,5.50
2022-08-03T13:40:49.634Z,4.20
2022-08-03T13:43:24.350Z,5.40
2022-08-03T13:45:58.414Z,2.80
2022-08-03T13:48:37.340Z,2.90
2022-08-03T13:51:22.758Z,4.40
2022-08-03T13:53:57.665Z,4.60
2022-08-03T13:56:35.316Z,3.40
2022-08-03T13:59:11.143Z,4.50
2022-08-03T14:01:55.082Z,4.60
2022-08-03T14:04:30.224Z,2.80
2022-08-03T14:07:04.938Z,4.50
2022-08-03T14:09:42.936Z,4.80
2022-08-03T14:12:25.833Z,3.60
2022-08-03T14:15:01.668Z,2.80
2022-08-03T14:17:42.250Z,8.40
2022-08-03T14:20:38.481Z,5.50
2022-08-03T14:23:19.219Z,6.20
2022-08-03T14:25:53.634Z,4.80
2022-08-03T14:28:28.809Z,2.80
2022-08-03T14:31:03.580Z,4.50
2022-08-03T14:33:38.115Z,4.40
2022-08-03T14:36:12.567Z,6.00
2022-08-03T14:38:47.932Z,6.70
2022-08-03T14:41:22.035Z,5.40
2022-08-03T14:44:00.591Z,3.00
2022-08-03T14:46:36.901Z,5.40
2022-08-03T14:50:36.511Z,6.50
2022-08-03T14:52:07.447Z,4.30
2022-08-03T14:54:41.666Z,4.30
2022-08-03T14:57:15.931Z,4.70
2022-08-03T14:59:55.748Z,3.30
2022-08-03T15:02:31.787Z,3.80
2022-08-03T15:05:12.826Z,3.80
2022-08-03T15:07:54.750Z,3.00
2022-08-03T15:10:40.051Z,3.50
2022-08-03T15:13:19.721Z,3.40
2022-08-03T15:15:54.160Z,3.00
2022-08-03T15:18:28.905Z,4.70
2022-08-03T15:21:02.967Z,2.80
2022-08-03T15:23:36.811Z,5.00
2022-08-03T15:26:34.001Z,4.30
2022-08-03T15:29:04.740Z,4.40
2022-08-03T15:31:38.885Z,5.00
2022-08-03T15:34:15.142Z,4.10
2022-08-03T15:36:49.740Z,4.50
2022-08-03T15:39:23.827Z,5.70
2022-08-03T15:41:58.069Z,4.10
2022-08-03T15:44:32.409Z,3.70
2022-08-03T15:47:06.666Z,3.90
2022-08-03T15:49:41.308Z,3.90
2022-08-03T15:52:15.933Z,4.40
2022-08-03T15:54:50.704Z,2.90
2022-08-03T15:57:25.221Z,3.10
2022-08-03T15:59:59.434Z,8.00
2022-08-03T16:02:33.742Z,6.70
2022-08-03T16:05:09.254Z,5.30
2022-08-03T16:08:03.487Z,4.90
2022-08-03T16:10:39.824Z,4.80
2022-08-03T16:13:13.975Z,7.40
2022-08-03T16:15:50.608Z,3.80
2022-08-03T16:18:25.614Z,5.10
2022-08-03T16:20:59.584Z,13.70
2022-08-03T16:23:33.965Z,6.70
2022-08-03T16:26:09.298Z,4.40
2022-08-03T16:28:43.542Z,4.10
2022-08-03T16:31:17.498Z,3.70
2022-08-03T16:33:51.312Z,19.10
2022-08-03T16:36:25.300Z,6.70
2022-08-03T16:39:09.031Z,3.10
2022-08-03T16:41:55.017Z,4.60
2022-08-03T16:44:36.710Z,6.50
2022-08-03T16:47:11.093Z,3.90
2022-08-03T16:49:58.163Z,15.40
2022-08-03T16:52:34.109Z,11.70
2022-08-03T16:55:15.360Z,16.50
2022-08-03T16:57:59.088Z,5.40
2022-08-03T17:00:41.707Z,6.60
2022-08-03T17:03:20.445Z,4.80
2022-08-03T17:06:02.009Z,5.80
2022-08-03T17:08:36.996Z,3.80
2022-08-03T17:11:15.392Z,3.60
2022-08-03T17:13:50.795Z,4.20
2022-08-03T17:16:25.342Z,10.50
2022-08-03T17:19:04.099Z,50.00
2022-08-03T17:21:50.813Z,27.40
2022-08-03T17:24:33.412Z,11.70
2022-08-03T17:28:41.502Z,6.00
2022-08-03T17:30:10.572Z,6.60
2022-08-03T17:32:56.587Z,36.80
2022-08-03T17:35:34.551Z,24.80
2022-08-03T17:38:16.538Z,7.50
2022-08-03T17:40:52.136Z,5.90
2022-08-03T17:44:12.799Z,6.50
2022-08-03T17:46:22.482Z,5.90
2022-08-03T17:48:57.673Z,9.40
2022-08-03T17:51:46.523Z,5.20
2022-08-03T17:55:50.657Z,6.40
2022-08-03T17:58:02.273Z,4.50
2022-08-03T18:03:58.598Z,5.00
2022-08-03T18:06:56.353Z,6.60
2022-08-03T18:10:04.460Z,4.20
2022-08-03T18:12:34.154Z,4.60
2022-08-03T18:15:21.315Z,15.50
2022-08-03T18:18:02.729Z,17.20
2022-08-03T18:20:41.739Z,17.10
2022-08-03T18:23:25.154Z,38.30
2022-08-03T18:26:14.748Z,28.70
2022-08-03T18:28:53.143Z,19.80
2022-08-03T18:32:00.459Z,10.40
2022-08-03T18:34:33.032Z,6.60
2022-08-03T18:37:09.354Z,6.20
2022-08-03T18:39:49.879Z,10.50
2022-08-03T18:42:28.297Z,8.30
2022-08-03T18:45:54.978Z,5.50
2022-08-03T18:48:17.748Z,5.60
2022-08-03T18:51:00.856Z,12.70
2022-08-03T18:54:02.754Z,12.00
2022-08-03T18:56:50.289Z,17.90
2022-08-03T18:59:37.345Z,18.50
2022-08-03T19:02:36.160Z,12.20
2022-08-03T19:05:13.328Z,7.20
2022-08-03T19:07:58.397Z,6.40
2022-08-03T19:10:38.747Z,6.00
2022-08-03T19:13:26.032Z,7.90
2022-08-03T19:16:19.619Z,6.10
2022-08-03T19:18:55.591Z,9.40
2022-08-03T19:21:32.139Z,16.50
2022-08-03T19:24:10.409Z,19.70
2022-08-03T19:26:48.594Z,15.60
2022-08-03T19:29:58.066Z,7.70
2022-08-03T19:32:24.524Z,8.00
2022-08-03T19:35:00.237Z,10.40
2022-08-03T19:37:39.873Z,7.50
2022-08-03T19:40:15.509Z,6.10
2022-08-03T19:43:01.673Z,5.70
2022-08-03T19:46:04.797Z,6.50
2022-08-03T19:48:39.897Z,11.00
2022-08-03T19:51:16.805Z,16.70
2022-08-03T19:53:54.308Z,16.30
2022-08-03T19:56:31.866Z,15.90
2022-08-03T19:59:13.254Z,10.50
2022-08-03T20:01:50.715Z,7.50
2022-08-03T20:04:42.770Z,7.60
2022-08-03T20:07:22.470Z,8.40
2022-08-03T20:10:01.240Z,12.70
2022-08-03T20:12:39.680Z,7.60
2022-08-03T20:15:18.334Z,8.70
2022-08-03T20:17:58.461Z,7.70
2022-08-03T20:20:40.347Z,7.00
2022-08-03T20:23:21.203Z,6.60
2022-08-03T20:26:01.978Z,9.30
2022-08-03T20:28:49.669Z,6.50
2022-08-03T20:31:32.221Z,9.00
2022-08-03T20:34:11.340Z,7.50
2022-08-03T20:36:51.959Z,5.90
2022-08-03T20:39:26.333Z,6.40
2022-08-03T20:42:01.770Z,6.60
2022-08-03T20:44:37.684Z,6.70
2022-08-03T20:47:23.717Z,6.20
2022-08-03T20:49:59.213Z,7.40
2022-08-03T20:52:43.801Z,10.60
2022-08-03T20:55:47.528Z,7.00
2022-08-03T20:58:23.864Z,6.90
2022-08-03T21:00:59.029Z,7.00
2022-08-03T21:03:40.786Z,7.80
2022-08-03T21:06:31.061Z,7.80
2022-08-03T21:09:08.017Z,7.00
2022-08-03T21:11:51.796Z,6.90
2022-08-03T21:12:56.255Z,3.60
2022-08-03T21:14:32.105Z,7.50
2022-08-03T21:17:14.222Z,7.00
2022-08-03T21:19:55.116Z,8.30
2022-08-03T21:22:34.210Z,6.90
2022-08-03T21:25:25.134Z,7.90
2022-08-03T21:28:07.553Z,5.90
2022-08-03T21:30:41.695Z,7.00
2022-08-03T21:33:18.344Z,6.40
2022-08-03T21:35:52.643Z,9.80
2022-08-03T21:38:29.798Z,8.00
2022-08-03T21:41:04.779Z,9.10
2022-08-03T21:43:39.200Z,6.50
2022-08-03T21:46:15.631Z,7.20
2022-08-03T21:50:07.621Z,7.30
2022-08-03T21:51:55.567Z,6.70
2022-08-03T21:54:37.045Z,10.10
2022-08-03T21:57:19.858Z,7.70
2022-08-03T22:00:02.976Z,7.00
2022-08-03T22:02:39.241Z,8.90
2022-08-03T22:05:29.150Z,6.60
2022-08-03T22:08:16.103Z,6.60
2022-08-03T22:10:55.220Z,8.50
2022-08-03T22:13:43.064Z,7.80
2022-08-03T22:16:20.534Z,6.80
2022-08-03T22:18:56.077Z,6.50
2022-08-03T22:21:36.046Z,7.50
2022-08-03T22:24:11.955Z,7.10
2022-08-03T22:27:02.185Z,6.60
2022-08-03T22:29:41.382Z,6.80
2022-08-03T22:32:18.371Z,6.00
2022-08-03T22:34:56.000Z,6.30
2022-08-03T22:37:33.957Z,6.70
2022-08-03T22:40:14.669Z,6.40
2022-08-03T22:42:52.515Z,7.30
2022-08-03T22:46:05.993Z,7.30
2022-08-03T22:48:24.504Z,6.90
2022-08-03T22:51:00.690Z,5.90
2022-08-03T22:53:35.839Z,6.20
2022-08-03T22:56:11.939Z,7.70
2022-08-03T22:58:45.891Z,7.30
2022-08-03T23:01:27.440Z,9.40
2022-08-03T23:04:07.634Z,10.60
2022-08-03T23:06:45.279Z,7.30
2022-08-03T23:09:24.322Z,7.30
2022-08-03T23:12:01.774Z,6.30
2022-08-03T23:14:41.992Z,8.20
2022-08-03T23:17:17.442Z,9.40
2022-08-03T23:19:53.880Z,12.10
2022-08-03T23:22:30.869Z,10.70
2022-08-03T23:25:05.220Z,9.20
2022-08-03T23:27:42.520Z,8.20
2022-08-03T23:30:17.441Z,9.80
2022-08-03T23:32:55.024Z,11.40
2022-08-03T23:36:18.818Z,13.70
2022-08-03T23:38:41.214Z,12.60
2022-08-03T23:41:16.574Z,9.10
2022-08-03T23:43:54.229Z,10.20
2022-08-03T23:46:30.805Z,10.00
2022-08-03T23:49:04.837Z,10.70
2022-08-03T23:51:49.083Z,9.80
2022-08-03T23:54:40.849Z,9.00
2022-08-03T23:57:30.638Z,8.10
